createdAt,value
2019-05-28T00:02:04.290Z,78.04
2019-05-28T00:04:34.267Z,77.96
2019-05-28T00:07:03.907Z,77.82
2019-05-28T00:09:33.613Z,77.78
2019-05-28T00:12:03.466Z,77.40
2019-05-28T00:14:33.053Z,77.38
2019-05-28T00:17:02.897Z,77.25
2019-05-28T00:19:32.787Z,77.03
2019-05-28T00:22:02.499Z,76.82
2019-05-28T00:24:32.170Z,77.02
2019-05-28T00:27:02.048Z,77.08
2019-05-28T00:29:33.956Z,77.09
2019-05-28T00:32:03.800Z,76.97
2019-05-28T00:34:33.482Z,76.83
2019-05-28T00:37:03.445Z,76.74
2019-05-28T00:39:33.294Z,76.51
2019-05-28T00:42:02.838Z,76.61
2019-05-28T00:44:32.542Z,76.36
2019-05-28T00:47:02.113Z,76.40
2019-05-28T00:49:31.751Z,76.37
2019-05-28T00:52:01.935Z,76.25
2019-05-28T00:54:31.428Z,76.25
2019-05-28T00:57:02.211Z,76.02
2019-05-28T00:59:33.693Z,76.11
2019-05-28T01:02:03.246Z,75.95
2019-05-28T01:04:32.945Z,75.83
2019-05-28T01:07:02.790Z,75.85
2019-05-28T01:09:32.862Z,75.66
2019-05-28T01:12:02.661Z,75.56
2019-05-28T01:14:32.491Z,75.64
2019-05-28T01:17:02.428Z,75.62
2019-05-28T01:19:31.931Z,75.48
2019-05-28T01:22:01.722Z,75.21
2019-05-28T01:24:31.590Z,75.06
2019-05-28T01:27:01.297Z,74.80
2019-05-28T01:29:31.623Z,74.77
2019-05-28T01:32:02.027Z,75.01
2019-05-28T01:34:32.045Z,74.93
2019-05-28T01:37:02.001Z,74.85
2019-05-28T01:39:33.297Z,74.74
2019-05-28T01:42:03.343Z,74.93
2019-05-28T01:44:33.075Z,75.05
2019-05-28T01:47:03.189Z,74.86
2019-05-28T01:49:33.194Z,75.04
2019-05-28T01:52:02.706Z,75.07
2019-05-28T01:54:32.457Z,75.14
2019-05-28T01:57:02.242Z,75.25
2019-05-28T01:59:32.425Z,75.08
2019-05-28T02:02:03.223Z,74.93
2019-05-28T02:04:33.105Z,75.06
2019-05-28T02:07:02.858Z,75.19
2019-05-28T02:09:32.574Z,74.84
2019-05-28T02:12:02.194Z,74.86
2019-05-28T02:14:31.828Z,74.73
2019-05-28T02:17:01.659Z,74.57
2019-05-28T02:19:31.189Z,74.53
2019-05-28T02:22:00.906Z,74.25
2019-05-28T02:24:30.537Z,74.11
2019-05-28T02:26:59.937Z,73.91
2019-05-28T02:29:29.485Z,73.60
2019-05-28T02:31:59.232Z,73.68
2019-05-28T02:34:28.822Z,73.64
2019-05-28T02:37:00.151Z,73.47
2019-05-28T02:39:29.941Z,73.80
2019-05-28T02:41:59.707Z,73.87
2019-05-28T02:44:29.479Z,73.74
2019-05-28T02:46:59.426Z,73.83
2019-05-28T02:49:28.995Z,73.83
2019-05-28T02:51:58.959Z,73.74
2019-05-28T02:54:28.813Z,73.66
2019-05-28T02:57:00.679Z,73.64
2019-05-28T02:59:33.472Z,73.51
2019-05-28T03:02:05.188Z,73.38
2019-05-28T03:04:38.048Z,73.42
2019-05-28T03:07:10.467Z,73.52
2019-05-28T03:09:46.659Z,73.53
2019-05-28T03:12:16.419Z,73.49
2019-05-28T03:14:46.338Z,73.48
2019-05-28T03:17:17.221Z,73.37
2019-05-28T03:19:48.698Z,73.43
2019-05-28T03:22:20.451Z,73.60
2019-05-28T03:24:50.861Z,73.74
2019-05-28T03:27:21.058Z,73.86
2019-05-28T03:29:51.770Z,73.87
2019-05-28T03:32:21.861Z,73.87
2019-05-28T03:34:51.865Z,74.00
2019-05-28T03:37:22.109Z,74.01
2019-05-28T03:39:54.226Z,74.09
2019-05-28T03:42:24.292Z,74.06
2019-05-28T03:44:55.419Z,74.20
2019-05-28T03:47:25.325Z,74.20
2019-05-28T03:49:55.133Z,74.22
2019-05-28T03:52:26.092Z,74.22
2019-05-28T03:54:55.876Z,74.29
2019-05-28T03:57:25.813Z,74.30
2019-05-28T03:59:57.960Z,74.21
2019-05-28T04:02:28.708Z,74.39
2019-05-28T04:04:58.631Z,74.39
2019-05-28T04:07:28.386Z,74.34
2019-05-28T04:09:58.014Z,74.28
2019-05-28T04:12:28.210Z,74.39
2019-05-28T04:14:57.854Z,74.37
2019-05-28T04:17:27.430Z,74.33
2019-05-28T04:19:57.443Z,74.54
2019-05-28T04:22:27.237Z,74.35
2019-05-28T04:24:57.591Z,74.63
2019-05-28T04:27:27.445Z,74.70
2019-05-28T04:29:57.829Z,74.52
2019-05-28T04:32:39.945Z,74.52
2019-05-28T04:35:05.361Z,74.53
2019-05-28T04:37:34.995Z,74.52
2019-05-28T04:40:05.682Z,74.62
2019-05-28T04:42:35.596Z,74.67
2019-05-28T04:45:05.684Z,74.67
2019-05-28T04:47:35.180Z,74.50
2019-05-28T04:50:05.354Z,74.41
2019-05-28T04:52:35.056Z,74.37
2019-05-28T04:55:07.556Z,74.20
2019-05-28T04:57:37.372Z,73.93
2019-05-28T05:00:08.699Z,73.82
2019-05-28T05:02:38.715Z,73.55
2019-05-28T05:05:10.049Z,73.65
2019-05-28T05:07:40.480Z,73.51
2019-05-28T05:10:12.384Z,73.44
2019-05-28T05:12:41.883Z,73.27
2019-05-28T05:15:11.971Z,73.30
2019-05-28T05:17:41.789Z,73.21
2019-05-28T05:20:11.582Z,73.04
2019-05-28T05:22:41.335Z,73.01
2019-05-28T05:25:11.948Z,72.42
2019-05-28T05:27:41.933Z,72.14
2019-05-28T05:30:13.248Z,72.04
2019-05-28T05:32:43.364Z,71.86
2019-05-28T05:35:14.986Z,71.90
2019-05-28T05:37:47.425Z,71.68
2019-05-28T05:40:18.294Z,71.55
2019-05-28T05:42:48.396Z,71.28
2019-05-28T05:45:18.380Z,71.10
2019-05-28T05:47:48.436Z,71.24
2019-05-28T05:50:21.480Z,71.25
2019-05-28T05:52:51.741Z,71.02
2019-05-28T05:55:23.077Z,70.79
2019-05-28T05:57:52.766Z,70.79
2019-05-28T06:00:22.617Z,70.58
2019-05-28T06:02:57.653Z,70.68
2019-05-28T06:05:28.917Z,70.27
2019-05-28T06:08:04.841Z,70.35
2019-05-28T06:10:38.314Z,70.04
2019-05-28T06:13:08.089Z,69.64
2019-05-28T06:15:37.574Z,69.43
2019-05-28T06:18:07.160Z,69.14
2019-05-28T06:20:37.182Z,68.93
2019-05-28T06:23:06.913Z,68.60
2019-05-28T06:25:36.323Z,68.44
2019-05-28T06:28:06.261Z,68.22
2019-05-28T06:30:35.855Z,68.13
2019-05-28T06:33:05.557Z,67.98
2019-05-28T06:35:35.423Z,67.72
2019-05-28T06:38:05.058Z,67.25
2019-05-28T06:40:34.677Z,66.77
2019-05-28T06:43:04.726Z,66.31
2019-05-28T06:45:34.803Z,66.57
2019-05-28T06:48:04.967Z,66.83
2019-05-28T06:50:34.725Z,66.87
2019-05-28T06:53:09.529Z,66.77
2019-05-28T06:55:41.772Z,66.54
2019-05-28T06:58:11.332Z,66.26
2019-05-28T07:00:41.512Z,65.93
2019-05-28T07:03:11.272Z,66.23
2019-05-28T07:05:45.528Z,66.23
2019-05-28T07:08:17.332Z,66.17
2019-05-28T07:10:57.122Z,66.07
2019-05-28T07:13:18.901Z,65.58
2019-05-28T07:15:51.583Z,65.38
2019-05-28T07:18:21.451Z,65.29
2019-05-28T07:20:53.809Z,64.97
2019-05-28T07:23:24.940Z,65.01
2019-05-28T07:25:54.826Z,64.65
2019-05-28T07:28:26.651Z,64.61
2019-05-28T07:30:57.865Z,64.15
2019-05-28T07:33:27.533Z,63.87
2019-05-28T07:35:57.450Z,63.56
2019-05-28T07:38:27.704Z,62.31
2019-05-28T07:40:57.909Z,61.41
2019-05-28T07:43:27.413Z,62.59
2019-05-28T07:45:57.624Z,62.92
2019-05-28T07:48:29.129Z,62.30
2019-05-28T07:50:58.907Z,59.01
2019-05-28T07:53:39.453Z,56.63
2019-05-28T07:56:00.772Z,58.08
2019-05-28T07:58:32.981Z,59.64
2019-05-28T08:01:07.699Z,59.52
2019-05-28T08:03:37.488Z,59.73
2019-05-28T08:06:07.192Z,59.82
2019-05-28T08:08:38.070Z,59.42
2019-05-28T08:11:07.864Z,59.44
2019-05-28T08:13:40.750Z,59.95
2019-05-28T08:16:18.157Z,59.47
2019-05-28T08:18:40.370Z,58.82
2019-05-28T08:21:10.200Z,58.40
2019-05-28T08:23:41.207Z,58.15
2019-05-28T08:26:11.052Z,57.85
2019-05-28T08:28:40.617Z,58.07
2019-05-28T08:31:16.515Z,58.37
2019-05-28T08:33:42.617Z,58.49
2019-05-28T08:36:12.552Z,58.38
2019-05-28T08:38:42.570Z,58.35
2019-05-28T08:41:12.423Z,58.68
2019-05-28T08:43:43.989Z,58.35
2019-05-28T08:46:13.974Z,58.52
2019-05-28T08:48:43.530Z,58.67
2019-05-28T08:51:13.524Z,58.64
2019-05-28T08:53:43.642Z,58.43
2019-05-28T08:56:13.604Z,58.53
2019-05-28T08:58:43.582Z,58.28
2019-05-28T09:01:13.955Z,57.98
2019-05-28T09:03:43.644Z,57.84
2019-05-28T09:06:14.611Z,56.98
2019-05-28T09:08:49.590Z,57.05
2019-05-28T09:11:21.224Z,57.52
2019-05-28T09:13:51.134Z,57.74
2019-05-28T09:16:21.400Z,57.48
2019-05-28T09:18:51.723Z,56.92
2019-05-28T09:21:22.225Z,56.71
2019-05-28T09:23:55.087Z,56.61
2019-05-28T09:26:25.025Z,55.30
2019-05-28T09:28:55.526Z,57.13
2019-05-28T09:31:27.487Z,57.38
2019-05-28T09:33:58.188Z,57.33
2019-05-28T09:36:28.391Z,57.04
2019-05-28T09:38:59.589Z,56.72
2019-05-28T09:41:35.334Z,56.50
2019-05-28T09:44:05.242Z,56.54
2019-05-28T09:46:35.014Z,56.53
2019-05-28T09:49:04.648Z,56.18
2019-05-28T09:51:34.530Z,57.40
2019-05-28T09:54:04.525Z,56.46
2019-05-28T09:56:34.159Z,56.08
2019-05-28T09:59:04.304Z,55.74
2019-05-28T10:01:37.359Z,55.98
2019-05-28T10:04:07.219Z,56.46
2019-05-28T10:06:41.575Z,56.51
2019-05-28T10:09:10.309Z,55.98
2019-05-28T10:11:43.063Z,56.08
2019-05-28T10:14:13.323Z,55.62
2019-05-28T10:16:43.846Z,55.62
2019-05-28T10:19:14.012Z,55.46
2019-05-28T10:21:43.524Z,55.04
2019-05-28T10:24:13.522Z,54.94
2019-05-28T10:26:43.595Z,54.91
2019-05-28T10:29:13.164Z,54.68
2019-05-28T10:31:42.874Z,54.09
2019-05-28T10:34:16.220Z,54.24
2019-05-28T10:36:46.821Z,53.34
2019-05-28T10:39:16.735Z,52.18
2019-05-28T10:41:49.189Z,53.22
2019-05-28T10:44:19.278Z,53.21
2019-05-28T10:46:53.938Z,53.19
2019-05-28T10:49:24.502Z,52.99
2019-05-28T10:51:57.796Z,52.83
2019-05-28T10:54:27.776Z,52.75
2019-05-28T10:56:59.437Z,53.44
2019-05-28T10:59:29.236Z,53.39
2019-05-28T11:02:00.831Z,53.57
2019-05-28T11:04:31.811Z,52.53
2019-05-28T11:07:02.332Z,51.72
2019-05-28T11:09:34.605Z,51.84
2019-05-28T11:12:05.090Z,51.61
2019-05-28T11:14:37.995Z,52.46
2019-05-28T11:17:08.071Z,52.32
2019-05-28T11:19:38.425Z,51.61
2019-05-28T11:22:10.577Z,51.72
2019-05-28T11:24:41.601Z,51.71
2019-05-28T11:27:11.352Z,51.31
2019-05-28T11:29:41.093Z,51.22
2019-05-28T11:32:11.546Z,50.98
2019-05-28T11:34:41.452Z,50.42
2019-05-28T11:37:13.935Z,50.34
2019-05-28T11:39:44.081Z,49.95
2019-05-28T11:42:13.750Z,49.42
2019-05-28T11:44:43.324Z,49.30
2019-05-28T11:47:14.564Z,49.00
2019-05-28T11:49:44.368Z,49.80
2019-05-28T11:52:14.035Z,50.16
2019-05-28T11:54:44.517Z,50.19
2019-05-28T11:57:14.506Z,50.24
2019-05-28T11:59:44.728Z,49.94
2019-05-28T12:02:15.924Z,48.52
2019-05-28T12:04:45.840Z,49.18
2019-05-28T12:07:25.942Z,48.55
2019-05-28T12:09:49.388Z,48.50
2019-05-28T12:12:19.272Z,48.71
2019-05-28T12:14:49.698Z,48.77
2019-05-28T12:17:37.944Z,48.07
2019-05-28T12:19:52.200Z,48.71
2019-05-28T12:22:27.296Z,49.44
2019-05-28T12:24:57.850Z,50.16
2019-05-28T12:27:27.480Z,49.90
2019-05-28T12:29:57.412Z,49.92
2019-05-28T12:32:27.145Z,49.51
2019-05-28T12:34:57.336Z,48.94
2019-05-28T12:37:46.352Z,48.25
2019-05-28T12:39:58.645Z,48.29
2019-05-28T12:42:29.145Z,48.02
2019-05-28T12:45:09.423Z,48.22
2019-05-28T12:47:30.786Z,48.14
2019-05-28T12:50:18.514Z,47.58
2019-05-28T12:52:33.716Z,48.84
2019-05-28T12:55:08.855Z,48.38
2019-05-28T12:57:38.944Z,49.08
2019-05-28T13:00:10.921Z,48.41
2019-05-28T13:02:41.081Z,49.06
2019-05-28T13:05:15.045Z,49.04
2019-05-28T13:07:45.132Z,49.85
2019-05-28T13:10:15.428Z,50.59
2019-05-28T13:12:45.522Z,49.61
2019-05-28T13:15:16.671Z,49.46
2019-05-28T13:17:46.713Z,49.43
2019-05-28T13:20:18.983Z,48.78
2019-05-28T13:22:48.669Z,49.41
2019-05-28T13:25:19.674Z,49.01
2019-05-28T13:27:49.539Z,48.68
2019-05-28T13:30:20.750Z,48.71
2019-05-28T13:32:50.533Z,48.58
2019-05-28T13:35:21.105Z,48.68
2019-05-28T13:37:50.743Z,48.21
2019-05-28T13:40:22.279Z,49.01
2019-05-28T13:42:52.499Z,49.39
2019-05-28T13:45:23.655Z,49.93
2019-05-28T13:47:53.357Z,51.83
2019-05-28T13:50:24.978Z,51.30
2019-05-28T13:52:54.534Z,51.15
2019-05-28T13:55:24.436Z,51.39
2019-05-28T13:57:54.318Z,50.70
2019-05-28T14:00:24.248Z,50.44
2019-05-28T14:02:54.075Z,50.42
2019-05-28T14:05:24.035Z,50.52
2019-05-28T14:07:53.497Z,50.57
2019-05-28T14:10:23.188Z,49.91
2019-05-28T14:12:53.152Z,49.25
2019-05-28T14:15:23.613Z,49.43
2019-05-28T14:17:53.354Z,48.87
2019-05-28T14:20:23.382Z,49.16
2019-05-28T14:22:53.505Z,49.08
2019-05-28T14:25:23.410Z,49.53
2019-05-28T14:27:53.306Z,49.50
2019-05-28T14:30:23.391Z,49.80
2019-05-28T14:32:53.511Z,48.59
2019-05-28T14:35:23.152Z,49.14
2019-05-28T14:37:52.750Z,48.36
2019-05-28T14:40:24.801Z,49.08
2019-05-28T14:42:54.145Z,48.57
2019-05-28T14:45:24.875Z,47.88
2019-05-28T14:47:55.854Z,48.29
2019-05-28T14:50:26.451Z,47.79
2019-05-28T14:52:56.325Z,47.74
2019-05-28T14:55:25.917Z,46.76
2019-05-28T14:57:56.334Z,47.14
2019-05-28T15:00:26.611Z,47.01
2019-05-28T15:02:56.375Z,47.51
2019-05-28T15:05:26.691Z,47.41
2019-05-28T15:07:57.106Z,48.59
2019-05-28T15:10:27.023Z,48.45
2019-05-28T15:12:57.446Z,48.12
2019-05-28T15:15:36.006Z,47.43
2019-05-28T15:17:58.901Z,47.34
2019-05-28T15:20:28.664Z,47.70
2019-05-28T15:22:58.717Z,48.22
2019-05-28T15:25:29.028Z,48.47
2019-05-28T15:27:58.676Z,49.08
2019-05-28T15:30:28.526Z,49.36
2019-05-28T15:32:58.550Z,48.99
2019-05-28T15:35:28.499Z,50.11
2019-05-28T15:37:58.583Z,50.09
2019-05-28T15:40:28.364Z,49.15
2019-05-28T15:43:06.215Z,48.88
2019-05-28T15:45:30.362Z,49.04
2019-05-28T15:48:00.243Z,48.54
2019-05-28T15:50:29.902Z,48.61
2019-05-28T15:52:59.854Z,49.16
2019-05-28T15:55:29.702Z,48.81
2019-05-28T15:57:59.471Z,49.14
2019-05-28T16:00:29.428Z,49.81
2019-05-28T16:02:59.022Z,50.25
2019-05-28T16:05:28.634Z,49.51
2019-05-28T16:07:58.696Z,49.05
2019-05-28T16:10:28.541Z,49.54
2019-05-28T16:12:58.437Z,50.40
2019-05-28T16:15:28.821Z,49.75
2019-05-28T16:17:58.812Z,49.46
2019-05-28T16:20:28.867Z,49.55
2019-05-28T16:22:59.002Z,49.64
2019-05-28T16:25:28.716Z,50.08
2019-05-28T16:27:58.564Z,49.73
2019-05-28T16:30:29.088Z,49.92
2019-05-28T16:32:58.791Z,49.90
2019-05-28T16:35:28.920Z,50.18
2019-05-28T16:37:59.005Z,49.39
2019-05-28T16:40:29.134Z,49.79
2019-05-28T16:42:58.960Z,50.16
2019-05-28T16:45:29.548Z,50.12
2019-05-28T16:47:59.399Z,49.61
2019-05-28T16:50:31.985Z,49.75
2019-05-28T16:53:02.021Z,50.17
2019-05-28T16:55:31.963Z,50.71
2019-05-28T16:58:02.076Z,51.13
2019-05-28T17:00:31.917Z,50.31
2019-05-28T17:03:01.791Z,49.73
2019-05-28T17:05:31.867Z,49.66
2019-05-28T17:08:02.020Z,50.03
2019-05-28T17:10:33.704Z,50.42
2019-05-28T17:13:03.728Z,50.64
2019-05-28T17:15:34.166Z,51.32
2019-05-28T17:18:04.190Z,51.11
2019-05-28T17:20:34.112Z,50.98
2019-05-28T17:23:04.002Z,51.49
2019-05-28T17:25:33.855Z,51.84
2019-05-28T17:28:03.933Z,51.66
2019-05-28T17:30:33.672Z,51.89
2019-05-28T17:33:03.895Z,51.91
2019-05-28T17:35:33.542Z,52.35
2019-05-28T17:38:03.340Z,52.72
2019-05-28T17:40:47.516Z,52.25
2019-05-28T17:43:05.159Z,51.33
2019-05-28T17:45:35.096Z,51.33
2019-05-28T17:48:05.327Z,51.25
2019-05-28T17:50:35.010Z,51.31
2019-05-28T17:53:05.647Z,51.36
2019-05-28T17:55:35.299Z,51.65
2019-05-28T17:58:05.478Z,51.77
2019-05-28T18:00:37.643Z,51.86
2019-05-28T18:03:07.469Z,51.79
2019-05-28T18:05:37.304Z,51.92
2019-05-28T18:08:11.165Z,51.85
2019-05-28T18:10:47.153Z,52.40
2019-05-28T18:13:17.332Z,52.31
2019-05-28T18:15:47.657Z,52.29
2019-05-28T18:18:22.502Z,52.37
2019-05-28T18:20:52.764Z,52.30
2019-05-28T18:23:22.648Z,52.12
2019-05-28T18:26:07.028Z,52.29
2019-05-28T18:28:37.291Z,52.43
2019-05-28T18:31:08.384Z,52.58
2019-05-28T18:33:43.475Z,52.53
2019-05-28T18:39:01.703Z,52.57
2019-05-28T18:41:32.138Z,53.07
2019-05-28T18:44:02.832Z,53.22
2019-05-28T18:46:33.342Z,53.10
2019-05-28T18:49:03.904Z,52.98
2019-05-28T18:51:38.732Z,52.97
2019-05-28T18:54:07.012Z,52.80
2019-05-28T18:56:37.555Z,52.50
2019-05-28T18:59:07.905Z,52.48
2019-05-28T19:01:40.377Z,52.45
2019-05-28T19:04:10.852Z,52.93
2019-05-28T19:06:41.777Z,53.23
2019-05-28T19:09:12.032Z,53.11
2019-05-28T19:11:42.551Z,53.59
2019-05-28T19:14:13.246Z,53.28
2019-05-28T19:16:45.166Z,53.55
2019-05-28T19:19:15.545Z,53.58
2019-05-28T19:21:45.657Z,53.82
2019-05-28T19:24:16.653Z,54.26
2019-05-28T19:26:47.315Z,54.35
2019-05-28T19:29:18.390Z,54.44
2019-05-28T19:31:48.773Z,54.32
2019-05-28T19:34:18.988Z,54.88
2019-05-28T19:36:49.828Z,55.09
2019-05-28T19:39:20.142Z,55.37
2019-05-28T19:41:54.528Z,55.61
2019-05-28T19:44:24.349Z,55.51
2019-05-28T19:46:55.661Z,55.92
2019-05-28T19:49:26.591Z,56.02
2019-05-28T19:51:56.763Z,56.10
2019-05-28T19:54:27.217Z,56.07
2019-05-28T19:56:57.330Z,56.58
2019-05-28T19:59:27.977Z,56.72
2019-05-28T20:01:58.428Z,56.47
2019-05-28T20:04:29.259Z,56.58
2019-05-28T20:06:59.413Z,57.05
2019-05-28T20:09:29.653Z,57.46
2019-05-28T20:12:11.444Z,57.40
2019-05-28T20:14:33.241Z,57.22
2019-05-28T20:17:03.620Z,57.86
2019-05-28T20:19:36.253Z,58.15
2019-05-28T20:22:06.913Z,58.21
2019-05-28T20:24:37.283Z,58.28
2019-05-28T20:27:08.044Z,59.10
2019-05-28T20:29:38.616Z,59.49
2019-05-28T20:32:10.357Z,59.14
2019-05-28T20:34:40.401Z,59.17
2019-05-28T20:37:11.118Z,59.20
2019-05-28T20:39:41.222Z,59.24
2019-05-28T20:42:26.161Z,58.81
2019-05-28T20:44:43.783Z,58.85
2019-05-28T20:47:14.612Z,58.79
2019-05-28T20:49:46.708Z,58.90
2019-05-28T20:52:17.507Z,58.74
2019-05-28T20:54:51.493Z,59.35
2019-05-28T20:57:22.499Z,59.36
2019-05-28T20:59:53.999Z,59.44
2019-05-28T21:02:23.995Z,59.74
2019-05-28T21:04:56.551Z,59.90
2019-05-28T21:07:26.970Z,60.17
2019-05-28T21:09:57.100Z,59.93
2019-05-28T21:12:40.620Z,60.02
2019-05-28T21:14:59.818Z,59.99
2019-05-28T21:17:32.446Z,59.91
2019-05-28T21:20:04.340Z,59.75
2019-05-28T21:22:34.299Z,60.03
2019-05-28T21:25:07.985Z,60.85
2019-05-28T21:27:38.356Z,60.82
2019-05-28T21:30:11.409Z,60.76
2019-05-28T21:32:41.752Z,60.62
2019-05-28T21:35:12.604Z,63.47
2019-05-28T21:37:42.872Z,62.58
2019-05-28T21:40:19.297Z,62.94
2019-05-28T21:42:59.290Z,63.70
2019-05-28T21:45:22.904Z,63.81
2019-05-28T21:47:54.417Z,63.63
2019-05-28T21:50:24.623Z,63.83
2019-05-28T21:52:55.028Z,64.64
2019-05-28T21:55:26.217Z,64.50
2019-05-28T21:57:56.014Z,64.83
2019-05-28T22:00:51.855Z,64.79
2019-05-28T22:03:21.942Z,66.54
2019-05-28T22:05:51.941Z,66.04
2019-05-28T22:08:22.328Z,67.69
2019-05-28T22:10:52.749Z,67.22
2019-05-28T22:13:23.417Z,66.36
2019-05-28T22:15:53.780Z,67.02
2019-05-28T22:18:24.644Z,67.87
2019-05-28T22:20:54.580Z,67.49
2019-05-28T22:23:24.622Z,67.14
2019-05-28T22:25:54.784Z,67.12
2019-05-28T22:28:24.905Z,67.87
2019-05-28T22:30:55.613Z,68.14
2019-05-28T22:33:25.972Z,68.33
2019-05-28T22:35:57.059Z,68.01
2019-05-28T22:38:27.671Z,68.51
2019-05-28T22:40:58.316Z,69.04
2019-05-28T22:43:31.465Z,68.63
2019-05-28T22:46:01.243Z,69.64
2019-05-28T22:48:31.500Z,69.44
2019-05-28T22:51:01.551Z,69.48
2019-05-28T22:53:31.402Z,69.48
2019-05-28T22:56:04.024Z,68.57
2019-05-28T22:58:33.039Z,66.02
2019-05-28T23:01:04.544Z,63.49
2019-05-28T23:03:34.250Z,61.02
2019-05-28T23:06:05.428Z,56.98
2019-05-28T23:08:35.414Z,56.93
2019-05-28T23:11:06.886Z,56.58
2019-05-28T23:13:46.581Z,56.17
2019-05-28T23:16:10.335Z,55.89
2019-05-28T23:18:40.340Z,56.45
2019-05-28T23:21:11.034Z,56.77
2019-05-28T23:23:40.874Z,56.77
2019-05-28T23:26:11.539Z,56.30
2019-05-28T23:28:41.485Z,56.01
2019-05-28T23:31:12.159Z,55.99
2019-05-28T23:33:42.173Z,55.17
2019-05-28T23:36:12.775Z,54.15
2019-05-28T23:38:42.676Z,53.28
2019-05-28T23:41:13.504Z,51.34
2019-05-28T23:43:43.227Z,51.43
2019-05-28T23:46:14.200Z,52.64
2019-05-28T23:48:44.298Z,52.01
2019-05-28T23:51:14.698Z,52.04
2019-05-28T23:53:44.581Z,52.16
2019-05-28T23:56:15.207Z,52.22
2019-05-28T23:58:45.262Z,52.32
